-4  °C
Temperature
-6  °C
  Dewpoint
86  %
   Humidity
Temp | Dewpoint | Humidity
Wind Speed
 mph
Wind Speed
 kts
Wind Speed
Calm
Due North

Wind Speed
Mostly Cloudy
Conditions
Pressure 1017.92 (hPa) - 30.06 (in)
Visibility 6.2 (mi) - 10.0 (km)

Current Conditions
LKLN
Location Plzen Line 6km (3.2mi)
Metar :LKLN 212000Z AUTO 00000KT 9999 BKN035 M04/M06 Q1018
Mon 21st January 21:00 pm

Airport
  Metar Aviation API Data Provided by https://www.checkwx.com/ CSS/SVG/PHP scripts by weather34.com © 2015-2019